Time;durP1;ratioP1;P1;durP2;ratioP2;P2;SDS_P1;SDS_P2;PMS_P1;PMS_P2;Temp;Humidity;BMP_temperature;BMP_pressure;BME280_temperature;BME280_humidity;BME280_pressure;Samples;Min_cycle;Max_cycle;Signal;HPM_P1;HPM_P2
2022/08/08 00:02:14;;;;;;;6.22;5.63;;;15.50;99.90;;;;;;5048868;28;20028;-77
2022/08/08 00:04:48;;;;;;;10.13;5.95;;;15.50;99.90;;;;;;5050403;28;20024;-78
2022/08/08 00:07:38;;;;;;;8.25;5.30;;;15.40;99.90;;;;;;5049684;28;20043;-79
2022/08/08 00:10:13;;;;;;;7.15;5.20;;;15.40;99.90;;;;;;5037478;28;20072;-78
2022/08/08 00:13:28;;;;;;;6.30;5.38;;;15.40;99.90;;;;;;5046327;28;20031;-78
2022/08/08 00:16:00;;;;;;;6.40;5.28;;;15.40;99.90;;;;;;4969996;28;20039;-78
2022/08/08 00:18:37;;;;;;;7.25;5.25;;;15.30;99.90;;;;;;5050294;28;20013;-78
2022/08/08 00:21:04;;;;;;;5.90;5.28;;;15.30;99.90;;;;;;5049367;28;20029;-79
2022/08/08 00:23:50;;;;;;;7.85;5.95;;;15.20;99.90;;;;;;5050229;28;20021;-78
2022/08/08 00:26:38;;;;;;;6.90;5.03;;;15.20;99.90;;;;;;5050538;28;20090;-78
2022/08/08 00:29:16;;;;;;;9.02;5.50;;;15.20;99.90;;;;;;5046591;28;20029;-78
2022/08/08 00:31:47;;;;;;;8.45;5.93;;;15.10;99.90;;;;;;5050902;28;20021;-78
2022/08/08 00:37:44;;;;;;;7.88;5.75;;;15.10;99.90;;;;;;5054592;28;20090;-78
2022/08/08 00:40:23;;;;;;;8.55;5.45;;;15.00;99.90;;;;;;5052431;28;20053;-78
2022/08/08 00:43:13;;;;;;;15.45;6.28;;;15.00;99.90;;;;;;5040945;28;20134;-78
2022/08/08 00:45:48;;;;;;;6.47;5.60;;;15.00;99.90;;;;;;5054084;28;20028;-78
2022/08/08 00:49:04;;;;;;;11.95;6.07;;;14.90;99.90;;;;;;5052036;28;20025;-79
2022/08/08 00:51:36;;;;;;;;;;;14.90;99.90;;;;;;5017153;28;20041;-79
2022/08/08 00:54:16;;;;;;;10.70;5.82;;;14.80;99.90;;;;;;5054106;28;19904;-79
2022/08/08 00:56:47;;;;;;;7.05;5.68;;;14.80;99.90;;;;;;5054093;28;20470;-79
2022/08/08 00:59:30;;;;;;;6.95;5.50;;;14.80;99.90;;;;;;5053941;28;20025;-79
2022/08/08 01:02:23;;;;;;;8.13;5.97;;;14.80;99.90;;;;;;5051772;28;20029;-79
2022/08/08 01:05:16;;;;;;;7.55;5.70;;;14.80;99.90;;;;;;5053543;28;20029;-78
2022/08/08 01:07:53;;;;;;;8.68;5.80;;;14.70;99.90;;;;;;5053958;28;20021;-79
2022/08/08 01:10:51;;;;;;;9.02;5.70;;;14.70;99.90;;;;;;5054208;28;20526;-78
2022/08/08 01:13:35;;;;;;;8.63;6.03;;;14.70;99.90;;;;;;5048770;28;20020;-79
2022/08/08 01:16:23;;;;;;;7.22;5.72;;;14.70;99.90;;;;;;5041296;28;20492;-79
2022/08/08 01:19:19;;;;;;;10.90;5.97;;;14.70;99.90;;;;;;5051847;28;20071;-78
2022/08/08 01:22:16;;;;;;;9.15;6.25;;;14.70;99.90;;;;;;5053477;28;20021;-78
2022/08/08 01:25:00;;;;;;;7.13;5.93;;;14.70;99.90;;;;;;5053441;28;20060;-79
2022/08/08 01:27:29;;;;;;;7.20;6.30;;;14.70;99.90;;;;;;5039792;28;20488;-78
2022/08/08 01:30:25;;;;;;;7.90;6.53;;;14.70;99.90;;;;;;5052867;28;20140;-78
2022/08/08 01:33:20;;;;;;;8.68;6.40;;;14.60;99.90;;;;;;5042063;28;20061;-78
2022/08/08 01:36:07;;;;;;;7.45;5.95;;;14.60;99.90;;;;;;5053544;28;20043;-78
2022/08/08 01:39:03;;;;;;;9.35;5.50;;;14.60;99.90;;;;;;5053458;28;20040;-78
2022/08/08 01:41:47;;;;;;;9.30;6.50;;;14.60;99.90;;;;;;5053208;28;20037;-79
2022/08/08 01:44:37;;;;;;;7.97;6.15;;;14.60;99.90;;;;;;5051628;28;20035;-79
2022/08/08 01:47:29;;;;;;;7.97;6.72;;;14.60;99.90;;;;;;5053202;28;20497;-78
2022/08/08 01:50:24;;;;;;;7.57;6.10;;;14.50;99.90;;;;;;5042728;28;20529;-78
2022/08/08 01:53:08;;;;;;;11.95;6.43;;;14.50;99.90;;;;;;5006920;28;20533;-78
2022/08/08 01:56:09;;;;;;;9.38;6.18;;;14.40;99.90;;;;;;5052726;28;20250;-78
2022/08/08 01:59:15;;;;;;;7.35;5.80;;;14.40;99.90;;;;;;5046797;28;20051;-78
2022/08/08 02:01:56;;;;;;;7.43;5.78;;;14.40;99.90;;;;;;5034877;28;20025;-78
2022/08/08 02:04:36;;;;;;;8.48;6.07;;;14.40;99.90;;;;;;5040506;28;20036;-79
2022/08/08 02:07:15;;;;;;;10.07;5.70;;;14.40;99.90;;;;;;5052862;28;20021;-78
2022/08/08 02:09:41;;;;;;;7.60;6.20;;;14.30;99.90;;;;;;5033713;28;20116;-78
2022/08/08 02:12:31;;;;;;;7.63;6.82;;;14.30;99.90;;;;;;5033836;28;20136;-79
2022/08/08 02:15:08;;;;;;;6.18;5.57;;;14.30;99.90;;;;;;5051187;28;20041;-78
2022/08/08 02:17:52;;;;;;;7.65;5.80;;;14.30;99.90;;;;;;5049664;28;20034;-79
2022/08/08 02:20:28;;;;;;;9.57;6.72;;;14.20;99.90;;;;;;5052056;28;20188;-79
2022/08/08 02:23:02;;;;;;;8.25;6.25;;;14.20;99.90;;;;;;5034579;28;20084;-78
2022/08/08 02:25:43;;;;;;;10.55;6.70;;;14.20;99.90;;;;;;5051793;28;20021;-78
2022/08/08 02:28:20;;;;;;;9.13;6.07;;;14.20;99.90;;;;;;5052039;28;20504;-78
2022/08/08 02:31:05;;;;;;;7.05;6.35;;;14.10;99.90;;;;;;5051445;28;20025;-79
2022/08/08 02:33:43;;;;;;;;;;;14.10;99.90;;;;;;5052193;28;20055;-78
2022/08/08 02:36:28;;;;;;;7.35;5.85;;;14.10;99.90;;;;;;5052172;28;19904;-78
2022/08/08 02:39:00;;;;;;;8.73;6.03;;;14.10;99.90;;;;;;5051942;28;20036;-78
2022/08/08 02:41:35;;;;;;;8.30;6.63;;;14.00;99.90;;;;;;5047035;28;20041;-78
2022/08/08 02:44:38;;;;;;;6.85;5.78;;;14.00;99.90;;;;;;5050330;28;20057;-79
2022/08/08 02:47:43;;;;;;;7.47;5.40;;;13.90;99.90;;;;;;5052315;28;20032;-78
2022/08/08 02:50:46;;;;;;;7.53;6.10;;;13.90;99.90;;;;;;5049678;28;20037;-78
2022/08/08 02:53:23;;;;;;;6.50;5.85;;;13.90;99.90;;;;;;5041871;28;20029;-78
2022/08/08 02:56:43;;;;;;;8.95;6.45;;;13.90;99.90;;;;;;5049926;28;20111;-78
2022/08/08 02:59:18;;;;;;;9.63;6.93;;;13.90;99.90;;;;;;5050397;28;20060;-78
2022/08/08 03:02:05;;;;;;;10.25;7.20;;;13.90;99.90;;;;;;5051898;28;20104;-78
2022/08/08 03:04:49;;;;;;;8.00;7.20;;;13.90;99.90;;;;;;5051225;28;20028;-78
2022/08/08 03:07:23;;;;;;;7.60;6.55;;;13.90;99.90;;;;;;5051736;28;20029;-78
2022/08/08 03:09:49;;;;;;;11.73;6.88;;;13.80;99.90;;;;;;5046620;28;20025;-78
2022/08/08 03:12:45;;;;;;;8.45;6.40;;;13.80;99.90;;;;;;5037860;28;20040;-78
2022/08/08 03:15:28;;;;;;;6.82;6.05;;;13.80;99.90;;;;;;5038937;28;20108;-78
2022/08/08 03:18:29;;;;;;;7.90;6.70;;;13.70;99.90;;;;;;5047901;28;20486;-78
2022/08/08 03:20:54;;;;;;;10.32;6.70;;;13.80;99.90;;;;;;5034134;28;20787;-78
2022/08/08 03:23:21;;;;;;;10.48;7.25;;;13.70;99.90;;;;;;5050707;28;20032;-78
2022/08/08 03:25:48;;;;;;;9.73;7.57;;;13.70;99.90;;;;;;5050740;28;20025;-78
2022/08/08 03:28:23;;;;;;;10.70;8.27;;;13.70;99.90;;;;;;5051051;28;20049;-77
2022/08/08 03:30:48;;;;;;;8.77;7.88;;;13.70;99.90;;;;;;5051128;28;20040;-78
2022/08/08 03:33:17;;;;;;;8.65;7.75;;;13.70;99.90;;;;;;5051164;28;20037;-78
2022/08/08 03:35:47;;;;;;;11.05;8.20;;;13.70;99.90;;;;;;5050572;28;20025;-78
2022/08/08 03:38:14;;;;;;;10.43;8.38;;;13.70;99.90;;;;;;5050976;28;20033;-78
2022/08/08 03:40:39;;;;;;;9.80;8.43;;;13.70;99.90;;;;;;5050775;28;20028;-78
2022/08/08 03:43:09;;;;;;;12.60;9.10;;;13.70;99.90;;;;;;5050661;28;20464;-78
2022/08/08 03:45:36;;;;;;;11.35;9.15;;;13.70;99.90;;;;;;5036697;28;20025;-78
2022/08/08 03:48:09;;;;;;;13.38;8.50;;;13.70;99.90;;;;;;5049069;28;20032;-78
2022/08/08 03:50:39;;;;;;;9.90;8.90;;;13.70;99.90;;;;;;5050361;28;20500;-78
2022/08/08 03:53:07;;;;;;;9.85;8.70;;;13.70;99.90;;;;;;5050339;28;20121;-78
2022/08/08 03:55:40;;;;;;;10.95;9.82;;;13.70;99.90;;;;;;5049152;28;20040;-78
2022/08/08 03:58:07;;;;;;;11.68;10.48;;;13.70;99.90;;;;;;5050244;28;20063;-78
2022/08/08 04:00:32;;;;;;;13.90;11.02;;;13.80;99.90;;;;;;5049717;28;20025;-78
2022/08/08 04:03:07;;;;;;;13.30;11.20;;;13.80;99.90;;;;;;5049751;28;20041;-78
2022/08/08 04:05:35;;;;;;;14.75;10.05;;;13.80;99.90;;;;;;5050836;28;20426;-78
2022/08/08 04:08:02;;;;;;;13.43;9.52;;;13.90;99.90;;;;;;5050500;28;20087;-77
2022/08/08 04:10:29;;;;;;;9.25;7.07;;;13.90;99.90;;;;;;5050427;28;20493;-79
2022/08/08 04:12:55;;;;;;;12.02;7.10;;;13.90;99.90;;;;;;5042794;28;20032;-78
2022/08/08 04:15:21;;;;;;;10.60;9.05;;;13.90;99.90;;;;;;5034054;28;20111;-79
2022/08/08 04:17:48;;;;;;;13.52;8.30;;;13.90;99.90;;;;;;5049836;28;20187;-78
2022/08/08 04:20:14;;;;;;;11.18;8.98;;;13.90;99.90;;;;;;5022251;28;20420;-77
2022/08/08 04:22:40;;;;;;;10.38;8.68;;;13.90;99.90;;;;;;5039074;28;20022;-77
2022/08/08 04:25:07;;;;;;;13.15;8.52;;;13.90;99.90;;;;;;5038026;28;20036;-78
2022/08/08 04:27:34;;;;;;;12.63;8.40;;;13.90;99.90;;;;;;5043296;28;20108;-78
2022/08/08 04:30:01;;;;;;;10.75;8.65;;;14.00;99.90;;;;;;5039774;28;20044;-78
2022/08/08 04:32:26;;;;;;;11.85;9.18;;;14.00;99.90;;;;;;5045128;28;20133;-78
2022/08/08 04:34:52;;;;;;;10.52;8.02;;;14.10;99.90;;;;;;5041047;28;20021;-78
2022/08/08 04:37:18;;;;;;;8.73;7.88;;;14.10;99.90;;;;;;5035902;28;20418;-78
2022/08/08 04:39:43;;;;;;;10.82;8.98;;;14.10;99.90;;;;;;5045695;28;20028;-78
2022/08/08 04:42:09;;;;;;;10.48;8.75;;;14.10;99.90;;;;;;5044708;28;20053;-78
2022/08/08 04:44:35;;;;;;;13.68;9.38;;;14.20;99.90;;;;;;5041432;28;20026;-78
2022/08/08 04:47:01;;;;;;;10.45;7.95;;;14.20;99.90;;;;;;5041821;28;20535;-78
2022/08/08 04:49:26;;;;;;;10.23;8.48;;;14.20;99.90;;;;;;5050507;28;20025;-78
2022/08/08 04:51:52;;;;;;;11.82;8.38;;;14.30;99.90;;;;;;5050215;28;20021;-79
2022/08/08 04:54:18;;;;;;;12.10;8.65;;;14.30;99.90;;;;;;5049305;28;20025;-81
2022/08/08 04:56:43;;;;;;;9.27;7.97;;;14.30;99.90;;;;;;5050312;28;20040;-81
2022/08/08 04:59:09;;;;;;;10.82;7.93;;;14.40;99.90;;;;;;5049423;28;20036;-81
2022/08/08 05:01:35;;;;;;;9.70;7.38;;;14.40;99.90;;;;;;5048731;28;20029;-81
2022/08/08 05:04:00;;;;;;;9.23;6.93;;;14.50;99.90;;;;;;5048866;28;21318;-74
2022/08/08 05:06:26;;;;;;;10.48;6.50;;;14.50;99.90;;;;;;5048125;28;20105;-74
2022/08/08 05:08:52;;;;;;;9.93;7.05;;;14.60;99.90;;;;;;5048912;28;20037;-74
2022/08/08 05:11:18;;;;;;;8.48;6.53;;;14.60;99.90;;;;;;5048476;28;20580;-74
2022/08/08 05:13:43;;;;;;;13.07;7.70;;;14.60;99.90;;;;;;5044995;28;20033;-74
2022/08/08 05:16:09;;;;;;;10.50;7.45;;;14.60;99.90;;;;;;5048727;28;20047;-74
2022/08/08 05:18:35;;;;;;;13.45;7.53;;;14.70;99.90;;;;;;5048755;28;20117;-74
2022/08/08 05:21:07;;;;;;;9.77;7.78;;;14.70;99.90;;;;;;5048562;28;20041;-74
2022/08/08 05:23:33;;;;;;;10.88;7.85;;;14.80;99.90;;;;;;5053178;28;20032;-74
2022/08/08 05:25:59;;;;;;;10.25;7.40;;;14.90;99.90;;;;;;5053037;28;20037;-74
2022/08/08 05:28:24;;;;;;;16.85;7.75;;;15.00;99.90;;;;;;5053153;28;20354;-74
2022/08/08 05:30:50;;;;;;;9.35;7.63;;;15.10;99.90;;;;;;5052323;28;20367;-74
2022/08/08 05:33:16;;;;;;;9.90;7.55;;;15.20;99.90;;;;;;5052409;28;20068;-74
2022/08/08 05:35:43;;;;;;;10.63;7.38;;;15.30;99.90;;;;;;5039293;28;20041;-74
2022/08/08 05:38:13;;;;;;;13.35;7.78;;;15.40;99.90;;;;;;5037179;28;20532;-74
2022/08/08 05:40:44;;;;;;;12.18;7.95;;;15.40;99.90;;;;;;5033958;28;20536;-74
2022/08/08 05:43:15;;;;;;;12.32;7.88;;;15.60;99.90;;;;;;5052197;28;20029;-74
2022/08/08 05:45:41;;;;;;;14.48;8.60;;;15.60;99.90;;;;;;5052012;28;20039;-74
2022/08/08 05:48:09;;;;;;;10.85;7.30;;;15.70;99.90;;;;;;5041699;28;20064;-74
2022/08/08 05:50:35;;;;;;;10.20;6.88;;;15.80;99.90;;;;;;5046610;28;20029;-74
2022/08/08 05:53:01;;;;;;;9.82;7.15;;;15.90;99.90;;;;;;5040836;28;20044;-74
2022/08/08 05:55:30;;;;;;;10.48;7.55;;;16.00;99.90;;;;;;5049064;28;20044;-80
2022/08/08 05:57:58;;;;;;;7.25;5.90;;;16.10;99.90;;;;;;5049822;28;20037;-80
2022/08/08 06:00:29;;;;;;;8.25;6.32;;;16.20;99.90;;;;;;5054152;28;20377;-80
2022/08/08 06:03:10;;;;;;;10.10;6.70;;;16.30;99.90;;;;;;5050871;28;20040;-80
2022/08/08 06:06:00;;;;;;;11.23;6.30;;;16.40;99.90;;;;;;5053724;28;20051;-80
2022/08/08 06:08:28;;;;;;;8.75;5.50;;;16.60;99.90;;;;;;5051518;28;20036;-80
2022/08/08 06:10:57;;;;;;;8.35;5.72;;;16.70;99.90;;;;;;5053649;28;20497;-80
2022/08/08 06:13:24;;;;;;;8.30;4.82;;;16.80;99.90;;;;;;5052714;28;20025;-80
2022/08/08 06:15:53;;;;;;;8.07;5.00;;;16.90;99.90;;;;;;5050985;28;20032;-80
2022/08/08 06:18:22;;;;;;;8.38;5.45;;;17.00;99.90;;;;;;5035415;28;20044;-80
2022/08/08 06:20:52;;;;;;;6.75;4.80;;;17.10;99.90;;;;;;5053544;28;20040;-83
2022/08/08 06:23:18;;;;;;;7.95;5.18;;;17.20;99.90;;;;;;5055262;28;20412;-83
2022/08/08 06:25:54;;;;;;;8.45;4.80;;;17.20;99.90;;;;;;5055489;28;20075;-83
2022/08/08 06:28:33;;;;;;;8.30;4.50;;;17.40;99.90;;;;;;5055692;28;20025;-83
2022/08/08 06:31:02;;;;;;;6.63;4.45;;;17.50;99.90;;;;;;5054516;28;20025;-83
2022/08/08 06:33:52;;;;;;;9.88;4.75;;;17.60;99.90;;;;;;5054922;28;20039;-83
2022/08/08 06:36:30;;;;;;;8.48;4.03;;;17.70;99.90;;;;;;5054965;28;20420;-84
2022/08/08 06:38:58;;;;;;;5.78;4.20;;;17.80;99.90;;;;;;5055562;28;20036;-83
2022/08/08 06:41:25;;;;;;;10.23;4.10;;;17.90;99.90;;;;;;5055320;28;20025;-84
2022/08/08 06:43:56;;;;;;;8.77;4.00;;;18.00;99.90;;;;;;5054553;28;20029;-81
2022/08/08 06:46:21;;;;;;;6.57;3.50;;;18.10;99.90;;;;;;5033214;28;20034;-80
2022/08/08 06:48:47;;;;;;;6.13;3.75;;;18.20;99.90;;;;;;5052288;28;20033;-80
2022/08/08 06:51:14;;;;;;;8.55;3.88;;;18.30;99.90;;;;;;5050956;28;20058;-80
2022/08/08 06:53:40;;;;;;;7.97;4.20;;;18.40;99.90;;;;;;5051902;28;20064;-80
2022/08/08 06:56:07;;;;;;;7.72;4.30;;;18.50;99.90;;;;;;5052166;28;20079;-80
2022/08/08 06:58:33;;;;;;;9.75;4.60;;;18.60;99.90;;;;;;5052025;28;20070;-80
2022/08/08 07:01:01;;;;;;;5.72;3.70;;;18.60;99.90;;;;;;5050954;28;20036;-80
2022/08/08 07:03:43;;;;;;;6.72;3.97;;;18.60;99.90;;;;;;5051224;28;20089;-80
2022/08/08 07:06:11;;;;;;;7.88;3.67;;;18.70;99.90;;;;;;5051131;28;20025;-80
2022/08/08 07:08:38;;;;;;;7.35;3.75;;;18.80;99.90;;;;;;5052028;28;20021;-80
2022/08/08 07:11:05;;;;;;;5.90;3.35;;;18.90;99.90;;;;;;5050880;28;20029;-80
2022/08/08 07:13:43;;;;;;;8.00;3.70;;;18.90;99.90;;;;;;5043288;28;20108;-80
2022/08/08 07:16:24;;;;;;;5.25;3.42;;;18.80;99.90;;;;;;5051793;28;20116;-80
2022/08/08 07:19:10;;;;;;;8.55;3.92;;;18.80;99.90;;;;;;5049892;28;20038;-76
2022/08/08 07:21:54;;;;;;;6.72;3.97;;;18.70;99.90;;;;;;5051455;28;20528;-76
2022/08/08 07:24:27;;;;;;;6.90;3.40;;;18.60;99.90;;;;;;5051900;28;20062;-76
2022/08/08 07:26:53;;;;;;;6.93;4.20;;;18.60;99.90;;;;;;5037155;28;20120;-77
2022/08/08 07:29:20;;;;;;;7.05;4.10;;;18.70;99.90;;;;;;5052106;28;20047;-76
2022/08/08 07:31:46;;;;;;;6.18;4.20;;;18.80;99.90;;;;;;5051306;28;20416;-76
2022/08/08 07:34:14;;;;;;;5.78;3.65;;;19.00;99.90;;;;;;5050908;28;20052;-76
2022/08/08 07:36:40;;;;;;;8.82;4.07;;;19.20;99.90;;;;;;5051143;28;20033;-76
2022/08/08 07:39:07;;;;;;;5.95;3.65;;;19.40;99.90;;;;;;5051353;28;20029;-76
2022/08/08 07:41:36;;;;;;;8.35;3.45;;;19.70;99.90;;;;;;5050771;28;20503;-76
2022/08/08 07:44:04;;;;;;;9.48;3.50;;;19.80;99.90;;;;;;5050579;28;20458;-76
2022/08/08 07:46:30;;;;;;;9.32;3.33;;;19.90;99.90;;;;;;5051441;28;20132;-76
2022/08/08 07:48:56;;;;;;;4.85;2.70;;;20.00;99.90;;;;;;5053744;28;20190;-76
2022/08/08 07:51:23;;;;;;;4.15;2.40;;;20.10;99.90;;;;;;5060070;28;20029;-76
2022/08/08 07:53:55;;;;;;;4.10;2.90;;;20.20;99.90;;;;;;5050835;28;20154;-76
2022/08/08 07:56:26;;;;;;;6.55;3.00;;;20.30;99.90;;;;;;5043376;28;20091;-77
2022/08/08 07:58:52;;;;;;;4.03;2.60;;;20.30;99.90;;;;;;5048841;28;20108;-77
2022/08/08 08:01:24;;;;;;;6.15;3.05;;;20.30;99.90;;;;;;5048427;28;20120;-80
2022/08/08 08:03:58;;;;;;;3.55;2.60;;;20.40;99.90;;;;;;5049757;28;20033;-81
2022/08/08 08:06:25;;;;;;;7.32;3.03;;;20.50;99.90;;;;;;5050252;28;20055;-77
2022/08/08 08:09:38;;;;;;;4.88;2.80;;;20.50;99.90;;;;;;5052631;28;20422;-78
2022/08/08 08:12:04;;;;;;;5.68;2.80;;;20.50;99.90;;;;;;4948817;28;20050;-80
2022/08/08 08:14:53;;;;;;;8.02;2.92;;;20.50;99.90;;;;;;5039757;28;20623;-80
2022/08/08 08:17:19;;;;;;;5.28;2.80;;;20.50;99.90;;;;;;5051106;28;20033;-81
2022/08/08 08:19:48;;;;;;;3.45;2.83;;;20.60;99.90;;;;;;5048926;28;20791;-78
2022/08/08 08:22:15;;;;;;;3.17;2.50;;;20.60;99.90;;;;;;5049433;28;20043;-80
2022/08/08 08:24:41;;;;;;;5.97;2.63;;;20.60;99.90;;;;;;5050727;28;20039;-80
2022/08/08 08:27:07;;;;;;;8.73;2.70;;;20.60;99.90;;;;;;5050124;28;20025;-78
2022/08/08 08:29:33;;;;;;;4.68;2.53;;;20.70;99.90;;;;;;5051615;28;20502;-76
2022/08/08 08:31:59;;;;;;;5.47;2.72;;;20.80;99.90;;;;;;5050293;28;20025;-76
2022/08/08 08:34:25;;;;;;;6.25;2.53;;;20.80;99.90;;;;;;5051101;28;20128;-76
2022/08/08 08:36:50;;;;;;;6.05;3.33;;;20.80;99.90;;;;;;5049682;28;20074;-76
2022/08/08 08:39:16;;;;;;;6.97;2.35;;;20.90;99.90;;;;;;5050998;28;20465;-76
2022/08/08 08:41:43;;;;;;;4.65;2.40;;;20.90;99.90;;;;;;5048511;28;20545;-76
2022/08/08 08:44:09;;;;;;;4.85;2.65;;;21.00;99.90;;;;;;5049484;28;20522;-76
2022/08/08 08:46:36;;;;;;;7.78;2.20;;;21.10;99.90;;;;;;5047194;28;20029;-76
2022/08/08 08:49:02;;;;;;;6.38;3.25;;;21.20;99.90;;;;;;5050419;28;20044;-76
2022/08/08 08:51:30;;;;;;;3.20;2.20;;;21.20;99.90;;;;;;5050184;28;20021;-77
2022/08/08 08:54:01;;;;;;;3.70;2.35;;;21.30;99.90;;;;;;5051830;28;20489;-76
2022/08/08 08:56:27;;;;;;;5.07;2.15;;;21.40;99.90;;;;;;5053567;28;20118;-76
2022/08/08 08:58:55;;;;;;;3.78;2.25;;;21.40;99.90;;;;;;5054442;28;20473;-76
2022/08/08 09:01:27;;;;;;;3.63;2.38;;;21.50;99.90;;;;;;5054173;28;20033;-76
2022/08/08 09:04:08;;;;;;;5.82;2.10;;;21.50;99.90;;;;;;5045880;28;20037;-76
2022/08/08 09:06:44;;;;;;;6.95;1.88;;;21.70;99.90;;;;;;5053311;28;20163;-76
2022/08/08 09:09:21;;;;;;;4.22;2.13;;;21.80;99.90;;;;;;5054505;28;20029;-76
2022/08/08 09:11:47;;;;;;;4.97;2.38;;;21.90;99.90;;;;;;5053779;28;20463;-76
2022/08/08 09:14:14;;;;;;;4.15;2.03;;;21.90;99.90;;;;;;5052387;28;20110;-76
2022/08/08 09:16:39;;;;;;;2.90;2.10;;;21.90;99.90;;;;;;5046241;28;20021;-76
2022/08/08 09:19:05;;;;;;;7.45;2.38;;;22.00;99.90;;;;;;5053939;28;20104;-77
2022/08/08 09:21:32;;;;;;;3.80;2.50;;;22.00;99.90;;;;;;5054123;28;20094;-76
2022/08/08 09:23:59;;;;;;;7.35;2.20;;;22.10;99.90;;;;;;5054084;28;20040;-77
2022/08/08 09:26:55;;;;;;;6.22;2.17;;;22.10;99.90;;;;;;5053881;28;20111;-76
2022/08/08 09:29:22;;;;;;;5.03;2.42;;;22.30;99.90;;;;;;5053788;28;20052;-76
2022/08/08 09:31:53;;;;;;;5.15;2.10;;;22.40;99.90;;;;;;5053912;28;20036;-76
2022/08/08 09:34:20;;;;;;;2.97;1.98;;;22.60;99.90;;;;;;5054609;28;20486;-77
2022/08/08 09:36:47;;;;;;;4.57;1.85;;;22.80;99.90;;;;;;5053158;28;20044;-76
2022/08/08 09:39:20;;;;;;;3.80;1.95;;;23.00;99.90;;;;;;5053823;28;20036;-76
2022/08/08 09:42:00;;;;;;;4.20;2.00;;;23.20;99.90;;;;;;5050402;28;20039;-76
2022/08/08 09:44:46;;;;;;;6.88;2.40;;;23.30;99.90;;;;;;5053650;28;20056;-76
2022/08/08 09:47:13;;;;;;;3.90;2.03;;;23.50;99.90;;;;;;5053947;28;20017;-76
2022/08/08 09:49:39;;;;;;;3.72;2.00;;;23.80;99.90;;;;;;5035609;28;20406;-76
2022/08/08 09:52:06;;;;;;;4.72;1.80;;;24.10;99.90;;;;;;5053769;28;20043;-76
2022/08/08 09:54:41;;;;;;;3.88;2.13;;;24.30;99.90;;;;;;5053616;28;20529;-76
2022/08/08 09:57:09;;;;;;;3.33;1.73;;;24.30;99.90;;;;;;5050560;28;20041;-76
2022/08/08 09:59:41;;;;;;;3.45;1.60;;;24.30;99.90;;;;;;5053167;28;20099;-76
2022/08/08 10:02:18;;;;;;;2.55;1.70;;;24.40;99.90;;;;;;5049528;28;20025;-77
2022/08/08 10:04:45;;;;;;;3.50;1.80;;;24.60;99.90;;;;;;5051482;28;20049;-76
2022/08/08 10:07:12;;;;;;;4.07;1.70;;;24.90;99.90;;;;;;5052983;28;20075;-76
2022/08/08 10:09:42;;;;;;;4.90;1.90;;;25.00;99.90;;;;;;5053322;28;20070;-76
2022/08/08 10:12:08;;;;;;;2.80;1.58;;;25.30;99.90;;;;;;5049613;28;20377;-76
2022/08/08 10:14:36;;;;;;;4.82;1.92;;;25.40;99.90;;;;;;5050357;28;20513;-76
2022/08/08 10:17:06;;;;;;;2.95;1.40;;;25.50;99.90;;;;;;5052743;28;20416;-75
2022/08/08 10:19:40;;;;;;;4.40;1.90;;;25.70;99.90;;;;;;5052330;28;20021;-76
2022/08/08 10:22:07;;;;;;;4.67;1.30;;;26.00;99.90;;;;;;5041510;28;20029;-76
2022/08/08 10:24:34;;;;;;;2.63;1.45;;;26.10;99.90;;;;;;5052550;28;20029;-76
2022/08/08 10:27:05;;;;;;;3.22;1.55;;;26.30;99.90;;;;;;5053021;28;20021;-77
2022/08/08 10:29:39;;;;;;;2.10;1.55;;;26.40;99.90;;;;;;5053351;28;20013;-76
2022/08/08 10:34:58;;;;;;;3.55;1.58;;;26.90;99.90;;;;;;5053089;28;19916;-76
2022/08/08 10:37:30;;;;;;;3.90;1.70;;;26.90;99.90;;;;;;5041369;28;20028;-76
2022/08/08 10:39:57;;;;;;;4.15;1.58;;;27.00;99.90;;;;;;5052491;28;20025;-77
2022/08/08 10:42:30;;;;;;;6.15;1.48;;;27.00;99.90;;;;;;5052579;28;20017;-76
2022/08/08 10:45:05;;;;;;;3.05;1.52;;;26.80;99.90;;;;;;5052536;28;20051;-77
2022/08/08 10:47:31;;;;;;;3.38;1.60;;;26.30;99.90;;;;;;5040641;28;20090;-77
2022/08/08 10:49:59;;;;;;;2.95;1.48;;;26.20;99.90;;;;;;5052465;28;20025;-76
2022/08/08 10:52:28;;;;;;;3.00;1.85;;;26.10;99.90;;;;;;5050921;28;20389;-76
2022/08/08 10:54:59;;;;;;;4.68;1.90;;;26.00;99.90;;;;;;5034206;28;20036;-76
2022/08/08 10:57:24;;;;;;;2.78;1.85;;;25.80;99.90;;;;;;5052513;28;20025;-77
2022/08/08 10:59:58;;;;;;;3.33;1.90;;;25.90;99.90;;;;;;5052553;28;20040;-76
2022/08/08 11:02:30;;;;;;;3.58;1.90;;;26.10;99.90;;;;;;5052410;28;20013;-77
2022/08/08 11:04:57;;;;;;;4.63;1.70;;;26.10;99.90;;;;;;5052243;28;20051;-76
2022/08/08 11:07:32;;;;;;;3.22;1.70;;;26.20;99.90;;;;;;5052244;28;20390;-76
2022/08/08 11:10:01;;;;;;;;;;;26.30;99.90;;;;;;5039464;28;20060;-76
2022/08/08 11:12:27;;;;;;;2.97;1.60;;;26.40;99.90;;;;;;5044225;28;19905;-76
2022/08/08 11:14:55;;;;;;;3.50;1.90;;;26.60;99.90;;;;;;5051333;28;20021;-76
2022/08/08 11:17:25;;;;;;;8.48;2.72;;;26.90;99.90;;;;;;5051694;28;20040;-77
2022/08/08 11:19:52;;;;;;;4.22;1.60;;;26.90;99.90;;;;;;5033931;28;20036;-76
2022/08/08 11:22:24;;;;;;;3.47;1.90;;;27.10;99.90;;;;;;5051566;28;20074;-76
2022/08/08 11:24:52;;;;;;;3.30;1.88;;;27.00;99.50;;;;;;5051527;28;20017;-76
2022/08/08 11:27:19;;;;;;;7.07;1.80;;;27.00;99.90;;;;;;5052068;28;20036;-76
2022/08/08 11:29:47;;;;;;;2.95;1.90;;;26.90;99.90;;;;;;5051700;28;20492;-77
2022/08/08 11:32:15;;;;;;;3.20;1.90;;;26.70;99.90;;;;;;5051594;28;20446;-76
2022/08/08 11:34:44;;;;;;;4.65;2.08;;;26.50;99.80;;;;;;5045566;28;20158;-76
2022/08/08 11:37:10;;;;;;;2.72;1.70;;;26.70;99.80;;;;;;5051690;28;20464;-76
2022/08/08 11:39:37;;;;;;;6.10;1.77;;;27.00;99.60;;;;;;5051464;28;20027;-77
2022/08/08 11:42:03;;;;;;;7.45;2.25;;;27.30;99.20;;;;;;5051352;28;20473;-76
2022/08/08 11:44:30;;;;;;;5.53;1.60;;;27.40;99.20;;;;;;5051229;28;20107;-76
2022/08/08 11:46:56;;;;;;;3.95;2.00;;;27.10;97.80;;;;;;5051491;28;20032;-76
2022/08/08 11:49:23;;;;;;;3.47;1.92;;;27.00;99.60;;;;;;5051112;28;20025;-76
2022/08/08 11:51:51;;;;;;;4.13;1.70;;;27.00;99.70;;;;;;5051104;28;20021;-76
2022/08/08 11:54:17;;;;;;;3.08;1.90;;;26.80;99.00;;;;;;5051640;28;20437;-76
2022/08/08 11:56:42;;;;;;;3.97;1.80;;;26.90;98.50;;;;;;5029977;28;20073;-76
2022/08/08 11:59:10;;;;;;;6.70;1.90;;;27.20;99.50;;;;;;5042376;28;20031;-77
2022/08/08 12:01:36;;;;;;;3.33;1.70;;;27.40;98.20;;;;;;5051066;28;20025;-76
2022/08/08 12:04:03;;;;;;;3.75;1.95;;;27.80;97.20;;;;;;5051172;28;20048;-76
2022/08/08 12:06:31;;;;;;;2.72;1.70;;;28.00;95.20;;;;;;5051186;28;20017;-76
2022/08/08 12:09:07;;;;;;;5.40;1.80;;;27.70;96.40;;;;;;5050992;28;20020;-76
2022/08/08 12:11:41;;;;;;;4.70;1.83;;;27.30;97.20;;;;;;5050102;28;20429;-76
2022/08/08 12:14:07;;;;;;;5.35;1.70;;;27.30;96.70;;;;;;5033077;28;20029;-76
2022/08/08 12:16:33;;;;;;;2.75;1.95;;;27.00;96.00;;;;;;5050925;28;20037;-76
2022/08/08 12:19:01;;;;;;;6.13;1.98;;;26.80;97.60;;;;;;5050998;28;20059;-76
2022/08/08 12:21:33;;;;;;;3.08;1.73;;;26.90;96.50;;;;;;5051071;28;20082;-76
2022/08/08 12:24:05;;;;;;;4.97;2.03;;;26.60;96.70;;;;;;5033050;28;20502;-76
2022/08/08 12:26:36;;;;;;;3.45;1.80;;;26.10;97.10;;;;;;5050959;28;20075;-76
2022/08/08 12:29:20;;;;;;;4.35;2.05;;;25.70;98.00;;;;;;5050118;28;20440;-76
2022/08/08 12:31:46;;;;;;;4.93;1.98;;;26.00;99.30;;;;;;5050920;28;20089;-76
2022/08/08 12:34:12;;;;;;;5.40;1.83;;;26.20;97.70;;;;;;5050914;28;20170;-76
2022/08/08 12:36:42;;;;;;;2.97;1.90;;;26.70;97.30;;;;;;5050642;28;20025;-76
2022/08/08 12:39:08;;;;;;;3.45;2.00;;;27.20;96.50;;;;;;5050913;28;20033;-76
2022/08/08 12:41:35;;;;;;;3.92;2.13;;;27.30;96.10;;;;;;5047560;28;20385;-76
2022/08/08 12:44:09;;;;;;;3.15;1.90;;;26.90;95.30;;;;;;5050718;28;20025;-76
2022/08/08 12:46:35;;;;;;;3.60;1.70;;;26.50;96.00;;;;;;5050718;28;20068;-76
2022/08/08 12:49:03;;;;;;;4.60;2.28;;;26.10;97.10;;;;;;5050418;28;20255;-76
2022/08/08 12:51:43;;;;;;;2.47;1.75;;;25.70;97.80;;;;;;5050580;28;20025;-77
2022/08/08 12:54:23;;;;;;;3.42;1.80;;;25.80;98.20;;;;;;5040428;28;20052;-76
2022/08/08 12:56:49;;;;;;;5.38;1.85;;;26.20;97.90;;;;;;5050686;28;20465;-76
2022/08/08 12:59:24;;;;;;;7.40;2.40;;;26.80;96.30;;;;;;5050191;28;20115;-76
2022/08/08 13:02:00;;;;;;;4.00;1.75;;;27.10;96.90;;;;;;5050660;28;20033;-77
2022/08/08 13:04:28;;;;;;;6.75;2.00;;;27.80;95.20;;;;;;5050351;28;20539;-77
2022/08/08 13:06:56;;;;;;;3.15;1.60;;;28.20;95.10;;;;;;5051626;28;20025;-78
2022/08/08 13:09:58;;;;;;;3.97;1.75;;;28.20;95.30;;;;;;5051752;28;20108;-79
2022/08/08 13:12:38;;;;;;;2.80;1.67;;;28.40;93.30;;;;;;5012670;28;20409;-79
2022/08/08 13:15:09;;;;;;;2.53;1.40;;;28.10;93.20;;;;;;5051845;28;20043;-79
2022/08/08 13:17:36;;;;;;;4.70;1.90;;;28.20;93.50;;;;;;5052180;28;20052;-79
2022/08/08 13:20:05;;;;;;;3.33;2.00;;;28.20;93.30;;;;;;5051909;28;20021;-79
2022/08/08 13:22:34;;;;;;;2.45;1.58;;;28.20;93.20;;;;;;5052103;28;20056;-78